PST,Max TemperatureF,Mean TemperatureF,Min TemperatureF,Max Dew PointF,MeanDew PointF,Min DewpointF,Max Humidity, Mean Humidity, Min Humidity, Max Sea Level PressureIn, Mean Sea Level PressureIn, Min Sea Level PressureIn, Max VisibilityMiles, Mean VisibilityMiles, Min VisibilityMiles, Max Wind SpeedMPH, Mean Wind SpeedMPH, Max Gust SpeedMPH,PrecipitationIn, CloudCover, Events, WindDirDegrees
2012-11-1,64,62,60,54,53,52,74,70,66,30.05,30.02,29.98,10,10,10,14,5,,0.00,7,,296
2012-11-2,64,62,61,56,55,54,76,74,71,30.03,30.00,29.95,10,10,10,10,6,,0.00,6,,257
2012-11-3,,,,,,,,,,,,,,,,,,,,,,
2012-11-4,,,,,,,,,,,,,,,,,,,,,,
2012-11-5,85,79,73,48,37,25,34,23,11,30.07,30.04,30.01,10,10,10,17,14,,0.00,0,,156
2012-11-6,69,66,63,63,62,60,94,84,72,30.11,30.06,30.04,10,4,0,12,9,,0.00,4,Fog,209
2012-11-7,64,63,61,56,56,55,82,76,73,30.10,30.05,30.00,10,10,10,13,10,,0.00,7,,284
2012-11-8,66,63,60,57,56,55,88,79,66,30.02,29.97,29.92,10,10,7,15,9,,0.00,7,Rain,259
2012-11-9,63,61,59,46,44,42,63,53,45,29.99,29.96,29.93,10,10,10,21,17,26,0.00,4,Rain,293
2012-11-10,,,,,,,,,,,,,,,,,,,,,,
2012-11-11,,,,,,,,,,,,,,,,,,,,,,
2012-11-12,,,,,,,,,,,,,,,,,,,,,,
2012-11-13,70,64,58,54,44,27,83,48,19,30.11,30.07,30.01,10,10,10,7,3,,0.00,1,,344
2012-11-14,68,62,57,58,54,42,82,68,57,30.08,30.04,30.00,10,10,10,14,7,,0.00,6,,189
2012-11-15,66,64,61,59,57,55,83,78,70,30.12,30.09,30.05,10,10,10,10,7,,0.00,7,,167
2012-11-16,69,64,60,60,59,57,88,79,70,30.12,30.08,30.04,10,10,7,14,7,,0.00,6,Rain,175
2012-11-17,,,,,,,,,,,,,,,,,,,,,,
2012-11-18,,,,,,,,,,,,,,,,,,,,,,
2012-11-19,64,62,59,58,57,52,89,81,73,30.27,30.23,30.20,10,10,7,12,6,,0.00,4,,316
2012-11-20,64,62,59,56,55,52,82,75,68,30.18,30.13,30.08,10,10,10,18,14,,0.00,2,,307
2012-11-21,65,62,59,58,57,56,90,81,73,30.14,30.10,30.05,10,10,10,15,13,,0.00,5,,307
2012-11-22,,,,,,,,,,,,,,,,,,,,,,
2012-11-23,,,,,,,,,,,,,,,,,,,,,,
2012-11-24,57,57,57,55,55,55,94,93,92,29.97,29.97,29.97,5,3,1,9,9,,0.00,6,,210
2012-11-25,,,,,,,,,,,,,,,,,,,,,,
2012-11-26,61,60,59,51,51,50,75,71,68,30.09,30.07,30.04,10,10,6,8,5,,0.00,7,,235
2012-11-27,62,59,56,53,52,50,81,73,67,30.20,30.13,30.08,10,10,10,12,7,,0.00,5,,302
2012-11-28,65,60,56,56,54,50,82,70,61,30.21,30.17,30.14,10,10,10,10,6,,0.00,6,Rain,156
2012-11-29,66,65,64,63,62,61,94,90,83,30.22,30.19,30.15,10,4,0,8,4,,0.03,7,Fog-Rain,326
2012-11-30,66,64,63,64,63,59,94,90,83,30.16,30.14,30.09,10,4,0,16,10,20,0.10,7,Fog-Rain,204